TimeEST,TemperatureF,Dew PointF,Humidity,Sea Level PressureIn,VisibilityMPH,Wind Direction,Wind SpeedMPH,Gust SpeedMPH,PrecipitationIn,Events,Conditions,WindDirDegrees,DateUTC
12:51 AM,28.9,19.9,69,30.12,10.0,Calm,Calm,-,N/A,,Clear,0,2012-12-12 05:51:00
1:51 AM,28.9,19.9,69,30.15,10.0,West,3.5,-,N/A,,Clear,270,2012-12-12 06:51:00
2:51 AM,28.0,19.9,72,30.18,10.0,Calm,Calm,-,N/A,,Clear,0,2012-12-12 07:51:00
3:51 AM,28.0,19.0,69,30.18,10.0,NW,3.5,-,N/A,,Clear,310,2012-12-12 08:51:00
4:51 AM,26.1,19.9,78,30.21,10.0,Calm,Calm,-,N/A,,Clear,0,2012-12-12 09:51:00
5:51 AM,26.1,19.0,75,30.25,10.0,Calm,Calm,-,N/A,,Clear,0,2012-12-12 10:51:00
6:51 AM,25.0,18.0,75,30.27,10.0,Calm,Calm,-,N/A,,Clear,0,2012-12-12 11:51:00
7:51 AM,25.0,18.0,75,30.30,10.0,Calm,Calm,-,N/A,,Clear,0,2012-12-12 12:51:00
8:51 AM,26.1,21.0,81,30.30,10.0,Calm,Calm,-,N/A,,Clear,0,2012-12-12 13:51:00
9:51 AM,30.9,21.0,67,30.32,10.0,Calm,Calm,-,N/A,,Clear,0,2012-12-12 14:51:00
10:51 AM,34.0,19.9,56,30.31,10.0,NW,3.5,-,N/A,,Clear,320,2012-12-12 15:51:00
11:51 AM,37.9,18.0,45,30.28,10.0,Variable,3.5,-,N/A,,Clear,0,2012-12-12 16:51:00
12:51 PM,39.9,15.1,36,30.27,10.0,WNW,8.1,17.3,N/A,,Clear,300,2012-12-12 17:51:00
1:51 PM,39.9,15.1,36,30.28,10.0,NW,12.7,-,N/A,,Clear,310,2012-12-12 18:51:00
3:51 PM,37.9,17.1,43,30.33,10.0,WNW,3.5,-,N/A,,Clear,290,2012-12-12 20:51:00
4:51 PM,37.0,19.0,48,30.34,10.0,Calm,Calm,-,N/A,,Mostly Cloudy,0,2012-12-12 21:51:00
5:51 PM,34.0,19.9,56,30.35,10.0,Calm,Calm,-,N/A,,Partly Cloudy,0,2012-12-12 22:51:00
6:51 PM,30.9,19.9,64,30.36,10.0,Calm,Calm,-,N/A,,Clear,0,2012-12-12 23:51:00
7:51 PM,30.9,19.9,64,30.38,10.0,Calm,Calm,-,N/A,,Clear,0,2012-12-13 00:51:00
8:51 PM,30.0,21.0,69,30.39,10.0,Calm,Calm,-,N/A,,Clear,0,2012-12-13 01:51:00
9:51 PM,28.0,19.9,72,30.39,10.0,WNW,3.5,-,N/A,,Clear,300,2012-12-13 02:51:00
10:51 PM,27.0,21.0,78,30.39,10.0,Calm,Calm,-,N/A,,Clear,0,2012-12-13 03:51:00
11:51 PM,26.1,19.9,78,30.40,10.0,Calm,Calm,-,N/A,,Clear,0,2012-12-13 04:51:00